Time;durP1;ratioP1;P1;durP2;ratioP2;P2;SDS_P1;SDS_P2;PMS_P1;PMS_P2;Temp;Humidity;BMP_temperature;BMP_pressure;BME280_temperature;BME280_humidity;BME280_pressure;Samples;Min_cycle;Max_cycle;Signal;HPM_P1;HPM_P2
2023/07/20 00:01:14;;;;;;;6.40;2.42;;;20.40;99.90;;;;;;5016124;28;20057;-73
2023/07/20 00:03:40;;;;;;;4.55;2.35;;;20.40;99.90;;;;;;5015932;28;20049;-73
2023/07/20 00:06:05;;;;;;;3.97;2.42;;;20.40;99.90;;;;;;5015891;28;20026;-73
2023/07/20 00:08:31;;;;;;;2.80;2.10;;;20.40;99.90;;;;;;5016112;28;20080;-73
2023/07/20 00:10:57;;;;;;;5.10;2.05;;;20.50;99.90;;;;;;5016198;28;20018;-73
2023/07/20 00:13:22;;;;;;;3.95;2.05;;;20.60;99.90;;;;;;5015908;28;20042;-73
2023/07/20 00:15:48;;;;;;;5.45;1.98;;;20.50;99.90;;;;;;5016152;28;20084;-73
2023/07/20 00:18:14;;;;;;;3.92;2.00;;;20.50;99.90;;;;;;5015877;28;20037;-73
2023/07/20 00:20:40;;;;;;;4.53;2.30;;;20.50;99.90;;;;;;5015813;28;20117;-73
2023/07/20 00:23:05;;;;;;;4.28;2.28;;;20.50;99.90;;;;;;5015735;28;20072;-73
2023/07/20 00:25:31;;;;;;;3.60;2.40;;;20.30;99.90;;;;;;5015585;28;20080;-73
2023/07/20 00:27:57;;;;;;;5.13;2.33;;;20.20;99.90;;;;;;5016891;28;20072;-73
2023/07/20 00:30:22;;;;;;;2.80;2.22;;;20.10;99.90;;;;;;5015541;28;20034;-73
2023/07/20 00:32:48;;;;;;;10.65;2.25;;;20.10;99.90;;;;;;5019332;28;20018;-73
2023/07/20 00:35:14;;;;;;;3.53;2.00;;;20.00;99.90;;;;;;5019263;28;20030;-73
2023/07/20 00:37:40;;;;;;;4.18;2.10;;;19.90;99.90;;;;;;5019577;28;20041;-73
2023/07/20 00:40:07;;;;;;;7.88;2.60;;;19.90;99.90;;;;;;5019886;28;20028;-73
2023/07/20 00:42:33;;;;;;;2.67;2.17;;;19.90;99.90;;;;;;5019226;28;20045;-73
2023/07/20 00:44:59;;;;;;;4.35;2.38;;;19.80;99.90;;;;;;5019351;28;20031;-73
2023/07/20 00:47:24;;;;;;;8.55;2.30;;;19.70;99.90;;;;;;5019510;28;20017;-73
2023/07/20 00:49:51;;;;;;;4.85;2.60;;;19.60;99.90;;;;;;5019386;28;20026;-73
2023/07/20 00:52:20;;;;;;;7.30;3.10;;;19.70;99.90;;;;;;5019523;28;20030;-73
2023/07/20 00:54:46;;;;;;;6.88;2.90;;;19.60;99.90;;;;;;5018979;28;20080;-73
2023/07/20 00:57:17;;;;;;;5.53;2.58;;;19.50;99.90;;;;;;5019504;28;20033;-73
2023/07/20 00:59:43;;;;;;;4.38;2.25;;;19.50;99.90;;;;;;5019494;28;20025;-73
2023/07/20 01:02:09;;;;;;;7.20;2.95;;;19.50;99.90;;;;;;5018644;28;20030;-73
2023/07/20 01:04:35;;;;;;;6.13;2.70;;;19.40;99.90;;;;;;5018946;28;20080;-73
2023/07/20 01:07:19;;;;;;;7.65;2.33;;;19.40;99.90;;;;;;5018721;28;20026;-73
2023/07/20 01:09:52;;;;;;;4.18;2.40;;;19.40;99.90;;;;;;5019705;28;20037;-73
2023/07/20 01:12:40;;;;;;;5.18;2.80;;;19.40;99.90;;;;;;5018961;28;20068;-73
2023/07/20 01:15:07;;;;;;;5.07;3.13;;;19.40;99.90;;;;;;5019148;28;20029;-73
2023/07/20 01:17:33;;;;;;;5.15;2.63;;;19.50;99.90;;;;;;5019166;28;20065;-73
2023/07/20 01:20:00;;;;;;;4.78;2.22;;;19.60;99.90;;;;;;5018767;28;20026;-73
2023/07/20 01:23:05;;;;;;;4.05;2.15;;;19.70;99.90;;;;;;5018704;28;20109;-73
2023/07/20 01:25:33;;;;;;;5.60;2.28;;;19.40;99.90;;;;;;5019120;28;20022;-73
2023/07/20 01:28:20;;;;;;;2.97;2.17;;;19.40;99.90;;;;;;5018950;28;20053;-73
2023/07/20 01:31:09;;;;;;;3.40;2.08;;;19.30;99.90;;;;;;5018152;28;20048;-73
2023/07/20 01:33:35;;;;;;;6.97;2.13;;;19.30;99.90;;;;;;5018180;28;20097;-73
2023/07/20 01:36:02;;;;;;;6.88;2.42;;;19.20;99.90;;;;;;5018342;28;20030;-73
2023/07/20 01:38:28;;;;;;;3.85;2.28;;;19.40;99.90;;;;;;5018231;28;20022;-73
2023/07/20 01:40:55;;;;;;;4.60;2.35;;;19.30;99.90;;;;;;5018226;28;20073;-73
2023/07/20 01:43:21;;;;;;;7.35;2.63;;;19.30;99.90;;;;;;5017129;28;20026;-73
2023/07/20 01:45:47;;;;;;;3.40;2.15;;;19.20;99.90;;;;;;5017936;28;20053;-73
2023/07/20 01:48:13;;;;;;;3.95;2.45;;;19.10;99.90;;;;;;5018592;28;20029;-73
2023/07/20 01:50:38;;;;;;;6.35;2.88;;;19.20;99.90;;;;;;5018122;28;20037;-73
2023/07/20 01:53:04;;;;;;;7.03;2.25;;;19.00;99.90;;;;;;5018957;28;20026;-73
2023/07/20 01:55:29;;;;;;;6.85;2.33;;;19.00;99.90;;;;;;5018570;28;20025;-73
2023/07/20 01:57:55;;;;;;;8.43;2.67;;;18.80;99.90;;;;;;5018665;28;20037;-73
2023/07/20 02:00:23;;;;;;;3.67;1.85;;;18.80;99.90;;;;;;5018321;28;20033;-73
2023/07/20 02:02:50;;;;;;;5.20;2.92;;;18.70;99.90;;;;;;5017581;28;20026;-73
2023/07/20 02:05:16;;;;;;;8.90;2.75;;;18.70;99.90;;;;;;5017993;28;20026;-73
2023/07/20 02:07:42;;;;;;;3.72;2.38;;;18.80;99.90;;;;;;5018265;28;20061;-73
2023/07/20 02:10:08;;;;;;;4.57;2.40;;;18.90;99.90;;;;;;5017901;28;20053;-73
2023/07/20 02:12:33;;;;;;;5.28;2.20;;;18.80;99.90;;;;;;5017620;28;20061;-73
2023/07/20 02:14:59;;;;;;;4.53;2.10;;;18.80;99.90;;;;;;5017428;28;20026;-73
2023/07/20 02:17:25;;;;;;;4.93;2.35;;;18.80;99.90;;;;;;5018308;28;20033;-73
2023/07/20 02:19:53;;;;;;;8.02;2.88;;;18.80;99.90;;;;;;5017498;28;20026;-73
2023/07/20 02:22:18;;;;;;;6.20;2.60;;;18.80;99.90;;;;;;5017036;28;20034;-73
2023/07/20 02:24:44;;;;;;;7.70;2.17;;;18.90;99.90;;;;;;5017149;28;20029;-73
2023/07/20 02:27:09;;;;;;;5.53;2.30;;;19.10;99.90;;;;;;5017717;28;20030;-73
2023/07/20 02:29:35;;;;;;;5.43;2.30;;;19.10;99.90;;;;;;5017407;28;20033;-73
2023/07/20 02:32:02;;;;;;;5.65;2.38;;;19.10;99.90;;;;;;5017471;28;20025;-73
2023/07/20 02:34:27;;;;;;;4.13;2.20;;;19.00;99.90;;;;;;5017365;28;20026;-73
2023/07/20 02:36:55;;;;;;;7.07;2.30;;;19.00;99.90;;;;;;5017867;28;20041;-73
2023/07/20 02:39:21;;;;;;;5.28;2.30;;;19.10;99.90;;;;;;5017168;28;20033;-73
2023/07/20 02:41:47;;;;;;;4.38;2.50;;;19.20;99.90;;;;;;5017043;28;20026;-71
2023/07/20 02:44:14;;;;;;;3.17;2.30;;;19.20;99.90;;;;;;5017658;28;20030;-70
2023/07/20 02:46:40;;;;;;;4.32;1.95;;;19.10;99.90;;;;;;5016911;28;20026;-70
2023/07/20 02:49:06;;;;;;;3.17;2.20;;;19.10;99.90;;;;;;5017598;28;20030;-70
2023/07/20 02:51:31;;;;;;;5.07;2.20;;;19.00;99.90;;;;;;5016898;28;20030;-70
2023/07/20 02:53:57;;;;;;;10.40;2.50;;;19.00;99.90;;;;;;5017738;28;20026;-70
2023/07/20 02:56:22;;;;;;;4.75;2.42;;;18.90;99.90;;;;;;5017194;28;20026;-70
2023/07/20 02:58:48;;;;;;;8.38;2.42;;;18.90;99.90;;;;;;5016773;28;20030;-70
2023/07/20 03:01:15;;;;;;;6.55;2.47;;;18.80;99.90;;;;;;5016883;28;20026;-70
2023/07/20 03:03:45;;;;;;;5.50;2.55;;;18.80;99.90;;;;;;5017122;28;20076;-71
2023/07/20 03:06:11;;;;;;;6.37;2.47;;;18.80;99.90;;;;;;5016585;28;20018;-70
2023/07/20 03:08:37;;;;;;;5.25;2.38;;;18.70;99.90;;;;;;5017168;28;20028;-70
2023/07/20 03:11:02;;;;;;;2.85;2.22;;;18.50;99.90;;;;;;5016613;28;20117;-70
2023/07/20 03:13:28;;;;;;;6.50;2.75;;;18.50;99.90;;;;;;5017069;28;20029;-70
2023/07/20 03:15:54;;;;;;;5.45;2.25;;;18.40;99.90;;;;;;5016831;28;20029;-70
2023/07/20 03:18:19;;;;;;;3.72;1.88;;;18.40;99.90;;;;;;5016691;28;20072;-70
2023/07/20 03:20:46;;;;;;;5.63;2.80;;;18.30;99.90;;;;;;5017172;28;20034;-70
2023/07/20 03:23:12;;;;;;;3.85;2.17;;;18.30;99.90;;;;;;5016263;28;20034;-70
2023/07/20 03:25:38;;;;;;;7.28;3.10;;;18.30;99.90;;;;;;5017324;28;20032;-70
2023/07/20 03:28:04;;;;;;;3.20;2.20;;;18.20;99.90;;;;;;5016629;28;20108;-70
2023/07/20 03:30:29;;;;;;;7.25;2.55;;;18.20;99.90;;;;;;5016282;28;20056;-70
2023/07/20 03:32:55;;;;;;;7.82;2.58;;;18.20;99.90;;;;;;5016028;28;20029;-70
2023/07/20 03:35:20;;;;;;;3.58;2.10;;;18.30;99.90;;;;;;5016811;28;20033;-70
2023/07/20 03:37:46;;;;;;;5.05;2.35;;;18.10;99.90;;;;;;5016485;28;20069;-70
2023/07/20 03:40:11;;;;;;;5.22;2.22;;;18.20;99.90;;;;;;5016063;28;20026;-70
2023/07/20 03:42:38;;;;;;;4.53;2.15;;;18.30;99.90;;;;;;5016830;28;20022;-70
2023/07/20 03:45:04;;;;;;;5.65;2.55;;;18.30;99.90;;;;;;5017045;28;20113;-71
2023/07/20 03:47:30;;;;;;;5.43;2.75;;;18.40;99.90;;;;;;5017093;28;20066;-70
2023/07/20 03:49:55;;;;;;;6.03;2.60;;;18.50;99.90;;;;;;5016073;28;20026;-70
2023/07/20 03:52:21;;;;;;;9.93;2.17;;;18.40;99.90;;;;;;5015934;28;20034;-70
2023/07/20 03:54:47;;;;;;;7.88;2.58;;;18.40;99.90;;;;;;5016501;28;20077;-70
2023/07/20 03:57:12;;;;;;;5.95;2.38;;;18.40;99.90;;;;;;5016749;28;20025;-70
2023/07/20 03:59:39;;;;;;;4.20;2.20;;;18.50;99.90;;;;;;5016162;28;20018;-70
2023/07/20 04:02:05;;;;;;;5.97;2.47;;;18.60;99.90;;;;;;5016686;28;20022;-70
2023/07/20 04:04:31;;;;;;;5.65;2.33;;;18.60;99.90;;;;;;5016276;28;20022;-70
2023/07/20 04:06:56;;;;;;;4.78;2.40;;;18.60;99.90;;;;;;5018272;28;20018;-70
2023/07/20 04:09:22;;;;;;;10.48;2.35;;;18.60;99.90;;;;;;5019925;28;20164;-70
2023/07/20 04:11:48;;;;;;;7.78;2.38;;;18.60;99.90;;;;;;5019703;28;20022;-70
2023/07/20 04:14:13;;;;;;;6.45;2.50;;;18.50;99.90;;;;;;5020566;28;20030;-70
2023/07/20 04:16:39;;;;;;;4.75;2.35;;;18.60;99.90;;;;;;5019966;28;20081;-70
2023/07/20 04:19:04;;;;;;;9.52;2.60;;;18.70;99.90;;;;;;5019789;28;20048;-70
2023/07/20 04:21:30;;;;;;;7.10;2.63;;;18.90;99.90;;;;;;5019537;28;20048;-70
2023/07/20 04:23:55;;;;;;;5.85;2.50;;;18.80;99.90;;;;;;5020606;28;20058;-68
2023/07/20 04:26:21;;;;;;;7.43;2.20;;;19.00;99.90;;;;;;5019233;28;20022;-67
2023/07/20 04:28:47;;;;;;;7.00;2.70;;;18.90;99.90;;;;;;5019258;28;20018;-67
2023/07/20 04:31:15;;;;;;;6.97;2.58;;;18.90;99.90;;;;;;5019594;28;20040;-68
2023/07/20 04:33:41;;;;;;;7.50;3.20;;;18.80;99.90;;;;;;5019647;28;20026;-68
2023/07/20 04:36:07;;;;;;;5.18;2.42;;;18.60;99.90;;;;;;5019581;28;20029;-68
2023/07/20 04:38:33;;;;;;;5.95;2.90;;;18.50;99.90;;;;;;5019336;28;20033;-68
2023/07/20 04:40:59;;;;;;;8.73;2.75;;;18.50;99.90;;;;;;5019710;28;20026;-68
2023/07/20 04:43:24;;;;;;;5.10;2.65;;;18.50;99.90;;;;;;5019263;28;20030;-68
2023/07/20 04:45:50;;;;;;;6.28;3.25;;;18.50;99.90;;;;;;5019439;28;20030;-68
2023/07/20 04:48:17;;;;;;;5.07;2.53;;;18.70;99.90;;;;;;5019035;28;20025;-68
2023/07/20 04:50:45;;;;;;;5.32;2.63;;;18.60;99.90;;;;;;5018993;28;20037;-68
2023/07/20 04:53:11;;;;;;;4.38;2.25;;;18.80;99.90;;;;;;5018969;28;20037;-68
2023/07/20 04:55:38;;;;;;;4.85;2.50;;;19.00;99.90;;;;;;5019617;28;20084;-68
2023/07/20 04:58:04;;;;;;;7.30;2.97;;;19.10;99.90;;;;;;5019316;28;20053;-68
2023/07/20 05:00:31;;;;;;;7.97;2.83;;;19.10;99.90;;;;;;5019527;28;20034;-68
2023/07/20 05:02:56;;;;;;;6.25;2.63;;;18.90;99.90;;;;;;5018670;28;20022;-68
2023/07/20 05:05:22;;;;;;;24.63;9.10;;;18.90;99.90;;;;;;5019209;28;20060;-67
2023/07/20 05:07:48;;;;;;;16.48;6.63;;;18.90;99.90;;;;;;5018881;28;20040;-67
2023/07/20 05:10:13;;;;;;;9.45;5.25;;;18.90;99.90;;;;;;5019169;28;20033;-68
2023/07/20 05:12:39;;;;;;;9.50;4.78;;;18.90;99.90;;;;;;5018820;28;20022;-68
2023/07/20 05:15:05;;;;;;;6.93;4.22;;;18.90;99.90;;;;;;5018821;28;20086;-68
2023/07/20 05:17:30;;;;;;;7.50;4.05;;;18.80;99.90;;;;;;5017186;28;20029;-68
2023/07/20 05:19:56;;;;;;;6.63;3.13;;;18.80;99.90;;;;;;5019341;28;20033;-68
2023/07/20 05:22:21;;;;;;;9.75;3.40;;;18.70;99.90;;;;;;5018567;28;20034;-68
2023/07/20 05:24:47;;;;;;;6.30;3.97;;;18.60;99.90;;;;;;5018634;28;20033;-67
2023/07/20 05:27:12;;;;;;;6.10;3.33;;;18.60;99.90;;;;;;5018272;28;20112;-68
2023/07/20 05:29:44;;;;;;;4.85;3.35;;;18.70;99.90;;;;;;5018216;28;20053;-68
2023/07/20 05:32:09;;;;;;;;;;;18.80;99.90;;;;;;5018702;28;20026;-68
2023/07/20 05:34:35;;;;;;;7.72;3.08;;;18.90;99.90;;;;;;5018555;28;19905;-68
2023/07/20 05:37:01;;;;;;;7.25;3.38;;;19.00;99.90;;;;;;5018417;28;20033;-68
2023/07/20 05:39:26;;;;;;;7.45;3.30;;;19.10;99.90;;;;;;5018015;28;20073;-68
2023/07/20 05:41:52;;;;;;;12.05;3.20;;;19.10;99.90;;;;;;5018369;28;20057;-68
2023/07/20 05:44:17;;;;;;;6.40;3.28;;;19.00;99.90;;;;;;5018186;28;20033;-68
2023/07/20 05:46:43;;;;;;;10.13;3.72;;;19.00;99.90;;;;;;5018223;28;20018;-68
2023/07/20 05:49:08;;;;;;;25.88;4.85;;;18.90;99.90;;;;;;5018191;28;20026;-68
2023/07/20 05:51:34;;;;;;;9.52;3.70;;;18.90;99.90;;;;;;5018160;28;20028;-68
2023/07/20 05:53:59;;;;;;;5.75;3.45;;;18.90;99.90;;;;;;5018004;28;20064;-68
2023/07/20 05:56:25;;;;;;;10.15;4.47;;;19.00;99.90;;;;;;5018050;28;20129;-68
2023/07/20 05:58:50;;;;;;;7.95;3.55;;;19.10;99.90;;;;;;5018083;28;20026;-68
2023/07/20 06:01:18;;;;;;;5.72;4.30;;;19.20;99.90;;;;;;5017879;28;20049;-68
2023/07/20 06:03:43;;;;;;;8.02;3.67;;;19.30;99.90;;;;;;5018524;28;20026;-67
2023/07/20 06:06:11;;;;;;;8.18;3.40;;;19.50;99.90;;;;;;5017538;28;20021;-67
2023/07/20 06:08:37;;;;;;;9.45;3.90;;;19.50;99.90;;;;;;5017433;28;20022;-67
2023/07/20 06:11:03;;;;;;;7.43;3.90;;;19.50;99.90;;;;;;5018420;28;20048;-67
2023/07/20 06:13:28;;;;;;;9.57;4.03;;;19.50;99.90;;;;;;5017537;28;20018;-68
2023/07/20 06:15:55;;;;;;;6.90;3.72;;;19.50;99.90;;;;;;5017728;28;20026;-68
2023/07/20 06:18:22;;;;;;;6.20;3.65;;;19.50;99.90;;;;;;5018216;28;20065;-68
2023/07/20 06:20:52;;;;;;;9.98;3.60;;;19.50;99.90;;;;;;5017143;28;20026;-67
2023/07/20 06:23:20;;;;;;;7.22;3.50;;;19.40;99.90;;;;;;5017455;28;20062;-68
2023/07/20 06:25:46;;;;;;;6.03;3.20;;;19.30;99.90;;;;;;5017201;28;20107;-67
2023/07/20 06:28:12;;;;;;;11.07;3.85;;;19.10;99.90;;;;;;5017172;28;20022;-67
2023/07/20 06:30:38;;;;;;;7.13;3.95;;;19.10;99.90;;;;;;5017628;28;20022;-67
2023/07/20 06:33:03;;;;;;;6.35;3.22;;;19.10;99.90;;;;;;5017304;28;20029;-68
2023/07/20 06:35:29;;;;;;;5.57;3.08;;;19.20;99.90;;;;;;5017360;28;20026;-67
2023/07/20 06:37:54;;;;;;;12.50;3.80;;;19.20;99.90;;;;;;5017405;28;20033;-67
2023/07/20 06:40:21;;;;;;;8.05;3.80;;;19.20;99.90;;;;;;5017616;28;20121;-67
2023/07/20 06:42:46;;;;;;;8.63;4.40;;;19.20;99.90;;;;;;5016864;28;20028;-67
2023/07/20 06:45:12;;;;;;;12.13;4.30;;;19.20;99.90;;;;;;5016890;28;20022;-67
2023/07/20 06:47:39;;;;;;;6.10;4.22;;;19.30;99.90;;;;;;5017505;28;20109;-68
2023/07/20 06:50:06;;;;;;;9.30;4.10;;;19.40;99.90;;;;;;5016833;28;20026;-68
2023/07/20 06:52:32;;;;;;;7.25;5.75;;;19.50;99.90;;;;;;5016681;28;20156;-68
2023/07/20 06:54:58;;;;;;;10.10;5.22;;;19.60;99.90;;;;;;5017085;28;20080;-67
2023/07/20 06:57:23;;;;;;;13.63;5.47;;;19.60;99.90;;;;;;5016794;28;20097;-67
2023/07/20 06:59:49;;;;;;;11.18;5.47;;;19.70;99.90;;;;;;5017246;28;20037;-67
2023/07/20 07:02:14;;;;;;;8.80;5.95;;;19.70;99.90;;;;;;5017411;28;20022;-67
2023/07/20 07:04:41;;;;;;;10.73;5.13;;;19.80;99.90;;;;;;5016898;28;20025;-67
2023/07/20 07:07:06;;;;;;;14.23;5.47;;;19.80;99.90;;;;;;5016884;28;20026;-67
2023/07/20 07:09:32;;;;;;;14.38;6.20;;;20.00;99.90;;;;;;5017742;28;20036;-68
2023/07/20 07:11:57;;;;;;;9.13;5.47;;;20.10;99.90;;;;;;5016684;28;20026;-68
2023/07/20 07:14:23;;;;;;;9.63;5.63;;;20.10;99.90;;;;;;5016708;28;20034;-68
2023/07/20 07:16:48;;;;;;;9.13;5.18;;;20.10;99.90;;;;;;5017536;28;20032;-68
2023/07/20 07:19:14;;;;;;;9.13;5.47;;;20.20;99.90;;;;;;5016800;28;20108;-67
2023/07/20 07:21:40;;;;;;;8.38;5.60;;;20.20;99.90;;;;;;5016453;28;20022;-67
2023/07/20 07:24:07;;;;;;;7.90;5.82;;;20.30;99.90;;;;;;5016468;28;20029;-70
2023/07/20 07:26:33;;;;;;;9.10;5.40;;;20.30;99.90;;;;;;5016336;28;20056;-70
2023/07/20 07:28:58;;;;;;;10.57;5.65;;;20.20;99.90;;;;;;5016580;28;20030;-70
2023/07/20 07:31:25;;;;;;;18.83;7.28;;;20.30;99.90;;;;;;5016111;28;20022;-70
2023/07/20 07:33:51;;;;;;;13.60;6.32;;;20.30;99.90;;;;;;5016620;28;20026;-70
2023/07/20 07:36:16;;;;;;;9.98;6.05;;;20.30;99.90;;;;;;5017219;28;20044;-70
2023/07/20 07:38:42;;;;;;;7.50;5.60;;;20.20;99.90;;;;;;5016487;28;20034;-70
2023/07/20 07:41:08;;;;;;;7.72;5.55;;;20.20;99.90;;;;;;5017489;28;20076;-70
2023/07/20 07:43:35;;;;;;;10.52;5.72;;;20.20;99.90;;;;;;5020804;28;20014;-70
2023/07/20 07:46:00;;;;;;;13.10;6.60;;;20.20;99.90;;;;;;5020456;28;20022;-70
2023/07/20 07:48:27;;;;;;;13.40;6.38;;;20.30;99.90;;;;;;5020529;28;20022;-70
2023/07/20 07:50:53;;;;;;;10.52;5.93;;;20.50;99.90;;;;;;5020657;28;20026;-70
2023/07/20 07:53:20;;;;;;;10.05;5.35;;;20.80;99.90;;;;;;5020077;28;20104;-70
2023/07/20 07:55:47;;;;;;;11.05;5.30;;;20.80;99.90;;;;;;5020649;28;20022;-70
2023/07/20 07:58:13;;;;;;;7.28;5.22;;;20.70;99.90;;;;;;5019979;28;20044;-70
2023/07/20 08:00:39;;;;;;;9.75;5.53;;;20.70;99.90;;;;;;5020153;28;20030;-70
2023/07/20 08:03:06;;;;;;;10.63;5.45;;;20.70;99.90;;;;;;5020167;28;20018;-70
2023/07/20 08:05:32;;;;;;;9.05;5.50;;;20.60;99.90;;;;;;5021151;28;20045;-71
2023/07/20 08:07:58;;;;;;;8.45;4.97;;;20.60;99.90;;;;;;5020132;28;20029;-70
2023/07/20 08:10:23;;;;;;;8.00;4.75;;;20.60;99.90;;;;;;5019816;28;20022;-70
2023/07/20 08:12:49;;;;;;;8.40;5.20;;;20.70;99.90;;;;;;5019910;28;20057;-71
2023/07/20 08:15:16;;;;;;;6.82;4.72;;;20.80;99.90;;;;;;5019746;28;20053;-70
2023/07/20 08:17:44;;;;;;;11.18;5.10;;;20.90;99.90;;;;;;5019984;28;20125;-71
2023/07/20 08:20:12;;;;;;;10.75;5.22;;;21.00;99.90;;;;;;5019857;28;20029;-71
2023/07/20 08:22:39;;;;;;;10.13;5.15;;;21.00;99.90;;;;;;5019637;28;20052;-71
2023/07/20 08:25:05;;;;;;;8.40;4.60;;;21.10;99.90;;;;;;5019565;28;20018;-71
2023/07/20 08:27:31;;;;;;;12.38;4.32;;;21.20;99.90;;;;;;5020121;28;20022;-71
2023/07/20 08:29:56;;;;;;;6.82;5.43;;;21.20;99.90;;;;;;5020450;28;20096;-71
2023/07/20 08:32:22;;;;;;;10.95;5.35;;;21.20;99.90;;;;;;5019563;28;20038;-71
2023/07/20 08:34:47;;;;;;;8.13;5.32;;;21.30;99.90;;;;;;5019454;28;20030;-73
2023/07/20 08:37:13;;;;;;;9.60;5.15;;;21.40;99.90;;;;;;5020034;28;20033;-71
2023/07/20 08:39:38;;;;;;;7.20;4.10;;;21.40;99.90;;;;;;5019343;28;20037;-72
2023/07/20 08:42:06;;;;;;;7.82;4.43;;;21.20;99.90;;;;;;5019585;28;20024;-71
2023/07/20 08:44:36;;;;;;;10.90;4.60;;;21.10;99.90;;;;;;5019750;28;20022;-71
2023/07/20 08:47:03;;;;;;;7.68;4.65;;;21.10;99.90;;;;;;5019537;28;20018;-72
2023/07/20 08:49:31;;;;;;;7.72;4.57;;;21.20;99.90;;;;;;5019285;28;20026;-72
2023/07/20 08:51:58;;;;;;;7.50;4.90;;;21.20;99.90;;;;;;5019245;28;20175;-71
2023/07/20 08:54:26;;;;;;;8.10;5.43;;;21.30;99.90;;;;;;5018805;28;20045;-72
2023/07/20 08:56:53;;;;;;;8.35;5.07;;;21.30;99.90;;;;;;5019029;28;20029;-72
2023/07/20 08:59:19;;;;;;;8.82;4.75;;;21.40;99.90;;;;;;5019007;28;20029;-72
2023/07/20 09:01:45;;;;;;;9.30;4.97;;;21.50;99.90;;;;;;5019366;28;20026;-71
2023/07/20 09:04:11;;;;;;;5.65;4.50;;;21.70;99.90;;;;;;5019025;28;20052;-71
2023/07/20 09:06:38;;;;;;;7.93;4.38;;;21.80;99.90;;;;;;5019411;28;20022;-71
2023/07/20 09:09:03;;;;;;;6.97;4.55;;;21.70;99.90;;;;;;5018694;28;20057;-71
2023/07/20 09:11:29;;;;;;;7.18;4.68;;;21.80;99.90;;;;;;5019602;28;20024;-72
2023/07/20 09:14:08;;;;;;;8.98;4.78;;;22.00;99.90;;;;;;5019745;28;20034;-71
2023/07/20 09:16:55;;;;;;;7.95;4.72;;;22.20;99.90;;;;;;5018555;28;20057;-71
2023/07/20 09:19:21;;;;;;;5.60;4.53;;;22.10;99.90;;;;;;5018408;28;20028;-72
2023/07/20 09:21:51;;;;;;;4.88;3.78;;;22.30;99.90;;;;;;5018317;28;20026;-71
2023/07/20 09:24:20;;;;;;;5.87;4.20;;;22.30;99.90;;;;;;5018423;28;20022;-71
2023/07/20 09:26:48;;;;;;;6.72;4.07;;;22.30;99.90;;;;;;5018418;28;20053;-71
2023/07/20 09:29:14;;;;;;;6.22;3.72;;;22.30;99.90;;;;;;5018639;28;20133;-71
2023/07/20 09:31:40;;;;;;;5.82;3.67;;;22.30;99.90;;;;;;5018836;28;20050;-71
2023/07/20 09:34:07;;;;;;;8.68;4.82;;;22.30;99.90;;;;;;5019298;28;20057;-71
2023/07/20 09:36:36;;;;;;;8.48;4.60;;;22.40;99.90;;;;;;5018497;28;20033;-71
2023/07/20 09:39:04;;;;;;;7.25;4.25;;;22.50;99.90;;;;;;5018303;28;20026;-71
2023/07/20 09:41:30;;;;;;;6.38;3.53;;;22.50;99.90;;;;;;5018697;28;20022;-71
2023/07/20 09:43:55;;;;;;;5.43;4.00;;;22.50;99.90;;;;;;5018207;28;20018;-71
2023/07/20 09:46:21;;;;;;;7.53;3.42;;;22.40;99.90;;;;;;5017911;28;20022;-71
2023/07/20 09:48:53;;;;;;;4.82;3.42;;;22.40;99.90;;;;;;5018170;28;20135;-71
2023/07/20 09:51:22;;;;;;;6.03;3.70;;;22.50;99.90;;;;;;5017775;28;20053;-71
2023/07/20 09:53:49;;;;;;;7.05;3.63;;;22.60;99.90;;;;;;5017840;28;20045;-71
2023/07/20 09:56:17;;;;;;;3.47;2.97;;;22.80;99.90;;;;;;5017713;28;20026;-71
2023/07/20 09:58:45;;;;;;;4.60;2.95;;;22.90;99.90;;;;;;5017621;28;20123;-71
2023/07/20 10:01:14;;;;;;;4.50;3.35;;;22.80;99.90;;;;;;5017604;28;20029;-71
2023/07/20 10:03:43;;;;;;;5.93;3.00;;;22.70;99.90;;;;;;5016914;28;20128;-71
2023/07/20 10:06:12;;;;;;;4.45;3.22;;;22.60;99.90;;;;;;5017978;28;20026;-71
2023/07/20 10:08:46;;;;;;;4.95;2.50;;;22.60;99.90;;;;;;5017524;28;20033;-71
2023/07/20 10:11:15;;;;;;;3.47;3.00;;;22.50;99.90;;;;;;5017580;28;20056;-71
2023/07/20 10:13:43;;;;;;;4.38;3.03;;;22.50;99.90;;;;;;5017356;28;20018;-71
2023/07/20 10:16:21;;;;;;;4.07;3.35;;;22.50;99.90;;;;;;5017504;28;20026;-71
2023/07/20 10:18:53;;;;;;;5.38;2.60;;;22.40;99.90;;;;;;5018108;28;20048;-71
2023/07/20 10:21:25;;;;;;;5.05;2.85;;;22.50;99.90;;;;;;5017379;28;20060;-71
2023/07/20 10:23:51;;;;;;;4.97;2.80;;;22.50;99.90;;;;;;5025090;23;20053;-68
2023/07/20 10:26:16;;;;;;;3.53;2.50;;;22.60;99.90;;;;;;4998852;28;20026;-68
2023/07/20 10:28:43;;;;;;;3.65;2.50;;;23.00;99.90;;;;;;4997598;28;20026;-69
2023/07/20 10:31:10;;;;;;;2.72;2.53;;;22.90;99.90;;;;;;4997632;28;20058;-69
2023/07/20 10:33:37;;;;;;;5.45;2.60;;;22.90;99.90;;;;;;4997903;28;20027;-69
2023/07/20 10:36:07;;;;;;;6.35;3.20;;;23.20;99.90;;;;;;4998499;28;20026;-69
2023/07/20 10:38:43;;;;;;;5.22;2.67;;;22.90;99.90;;;;;;4997469;28;20026;-70
2023/07/20 10:41:19;;;;;;;4.35;2.38;;;23.20;99.90;;;;;;4997502;28;20077;-70
2023/07/20 10:43:45;;;;;;;3.03;2.33;;;23.70;99.90;;;;;;4997774;28;20019;-70
2023/07/20 10:46:12;;;;;;;6.13;2.38;;;24.10;99.90;;;;;;4997839;28;20026;-69
2023/07/20 10:49:02;;;;;;;3.75;2.47;;;24.60;99.90;;;;;;4998245;28;20022;-69
2023/07/20 10:51:28;;;;;;;4.28;2.33;;;25.10;99.90;;;;;;4997200;28;20060;-69
2023/07/20 10:53:58;;;;;;;5.20;2.15;;;25.60;99.90;;;;;;4997512;28;20026;-69
2023/07/20 10:56:30;;;;;;;2.22;2.00;;;26.20;99.90;;;;;;4997988;28;20034;-69
2023/07/20 10:58:57;;;;;;;;;;;26.60;99.90;;;;;;4997974;28;20137;-69
2023/07/20 11:01:30;;;;;;;3.65;2.10;;;27.00;99.90;;;;;;4997285;28;19906;-69
2023/07/20 11:03:58;;;;;;;6.32;2.47;;;27.30;97.90;;;;;;4997940;28;20105;-69
2023/07/20 11:06:23;;;;;;;2.67;2.45;;;27.40;96.90;;;;;;4997420;28;20109;-69
2023/07/20 11:09:10;;;;;;;2.30;2.10;;;27.20;97.60;;;;;;4997360;28;20084;-70
2023/07/20 11:11:37;;;;;;;6.28;2.83;;;27.20;98.00;;;;;;4997865;28;20026;-70
2023/07/20 11:14:07;;;;;;;4.80;2.47;;;27.50;96.90;;;;;;4997720;28;20070;-70
2023/07/20 11:16:33;;;;;;;5.40;2.50;;;27.50;95.50;;;;;;4997750;28;20022;-69
2023/07/20 11:18:59;;;;;;;6.53;2.28;;;26.90;96.10;;;;;;4997016;28;20133;-69
2023/07/20 11:21:25;;;;;;;5.10;2.55;;;26.80;96.50;;;;;;4996874;28;20026;-69
2023/07/20 11:23:52;;;;;;;5.82;2.50;;;26.80;96.60;;;;;;4997084;28;20087;-69
2023/07/20 11:26:19;;;;;;;2.97;2.65;;;26.40;96.60;;;;;;4997206;28;20072;-69
2023/07/20 11:28:49;;;;;;;3.78;2.50;;;25.80;97.20;;;;;;4996718;28;20036;-69
2023/07/20 11:31:16;;;;;;;4.78;2.60;;;25.20;98.00;;;;;;4996728;28;20026;-69
2023/07/20 11:33:42;;;;;;;3.90;2.83;;;24.90;98.00;;;;;;4996775;28;20076;-69
2023/07/20 11:36:08;;;;;;;4.70;2.70;;;24.60;98.50;;;;;;4996589;28;20060;-69
2023/07/20 11:38:34;;;;;;;5.60;2.80;;;24.50;98.70;;;;;;4996478;28;20033;-69
2023/07/20 11:41:00;;;;;;;2.58;2.15;;;24.90;97.80;;;;;;4996867;28;20027;-69
2023/07/20 11:43:26;;;;;;;2.58;2.38;;;25.30;97.20;;;;;;4996602;28;20068;-70
2023/07/20 11:45:51;;;;;;;3.40;2.78;;;25.30;97.00;;;;;;4996599;28;20035;-69
2023/07/20 11:48:17;;;;;;;3.20;2.90;;;25.20;96.80;;;;;;4997811;28;20097;-69
2023/07/20 11:50:43;;;;;;;8.63;2.50;;;25.30;97.60;;;;;;4997260;28;20037;-69
2023/07/20 11:53:09;;;;;;;4.40;3.10;;;25.80;96.70;;;;;;4996410;28;20029;-69
2023/07/20 11:55:35;;;;;;;4.05;2.53;;;26.90;94.90;;;;;;4997305;28;20037;-69
2023/07/20 11:58:04;;;;;;;7.82;2.92;;;27.80;92.70;;;;;;4996634;28;20108;-69
2023/07/20 12:00:31;;;;;;;3.75;2.20;;;28.40;92.60;;;;;;4997993;28;20069;-70
2023/07/20 12:02:56;;;;;;;4.63;2.42;;;28.30;91.00;;;;;;4996796;28;20026;-70
2023/07/20 12:05:26;;;;;;;3.72;2.28;;;27.90;90.90;;;;;;4997455;28;20094;-70
2023/07/20 12:07:52;;;;;;;3.20;2.03;;;26.90;92.00;;;;;;4997095;28;20081;-70
2023/07/20 12:10:28;;;;;;;2.95;2.17;;;26.20;94.00;;;;;;4997427;28;20026;-70
2023/07/20 12:12:54;;;;;;;3.35;2.55;;;25.50;94.90;;;;;;4996219;28;20031;-70
2023/07/20 12:15:20;;;;;;;4.03;2.95;;;25.10;95.90;;;;;;4997385;28;20030;-70
2023/07/20 12:17:49;;;;;;;5.72;2.92;;;24.60;96.80;;;;;;4997188;28;20026;-70
2023/07/20 12:20:36;;;;;;;5.47;2.80;;;24.40;97.50;;;;;;4997307;28;20101;-70
2023/07/20 12:23:13;;;;;;;7.60;2.72;;;24.10;98.50;;;;;;4996382;28;20030;-69
2023/07/20 12:25:46;;;;;;;4.65;2.78;;;24.00;99.20;;;;;;4996482;28;20185;-69
2023/07/20 12:28:17;;;;;;;5.30;2.70;;;23.90;99.50;;;;;;4998826;28;20073;-69
2023/07/20 12:30:46;;;;;;;8.98;2.60;;;23.80;99.90;;;;;;5000538;28;20030;-69
2023/07/20 12:33:15;;;;;;;4.00;2.60;;;23.80;99.90;;;;;;4999775;28;20030;-69
2023/07/20 12:35:41;;;;;;;4.20;2.80;;;23.70;99.90;;;;;;4999827;28;20030;-70
2023/07/20 12:38:08;;;;;;;4.50;2.75;;;23.60;99.90;;;;;;4999879;28;20129;-69
2023/07/20 12:40:36;;;;;;;4.15;2.55;;;23.60;99.90;;;;;;5000038;28;20036;-69
2023/07/20 12:43:01;;;;;;;6.80;2.55;;;23.60;99.90;;;;;;5000456;28;20109;-69
2023/07/20 12:45:27;;;;;;;5.97;2.50;;;23.50;99.90;;;;;;4999899;28;20113;-70